sensor_id;sensor_type;location;lat;lon;timestamp;pressure;altitude;pressure_sealevel;temperature;humidity
50364;BME280;36272;59.400;17.982;2023-02-28T00:50:22;102426.88;;;3.22;80.96
50364;BME280;36272;59.400;17.982;2023-02-28T00:55:31;102425.47;;;3.18;80.74
50364;BME280;36272;59.400;17.982;2023-02-28T01:00:38;102418.75;;;3.14;80.86
50364;BME280;36272;59.400;17.982;2023-02-28T01:05:42;102417.78;;;3.15;80.69
50364;BME280;36272;59.400;17.982;2023-02-28T01:10:44;102420.94;;;3.09;81.03
50364;BME280;36272;59.400;17.982;2023-02-28T01:15:54;102420.13;;;3.08;81.00
50364;BME280;36272;59.400;17.982;2023-02-28T01:21:04;102424.56;;;3.08;80.91
50364;BME280;36272;59.400;17.982;2023-02-28T01:26:14;102425.34;;;2.98;80.56
50364;BME280;36272;59.400;17.982;2023-02-28T01:31:17;102424.97;;;2.82;80.74
50364;BME280;36272;59.400;17.982;2023-02-28T01:36:25;102414.91;;;2.76;81.24
50364;BME280;36272;59.400;17.982;2023-02-28T01:41:33;102426.69;;;2.72;80.91
50364;BME280;36272;59.400;17.982;2023-02-28T01:46:38;102430.41;;;2.69;81.10
50364;BME280;36272;59.400;17.982;2023-02-28T01:51:45;102430.81;;;2.64;81.50
50364;BME280;36272;59.400;17.982;2023-02-28T01:57:07;102426.25;;;2.66;81.36
50364;BME280;36272;59.400;17.982;2023-02-28T02:02:28;102418.31;;;2.66;81.24
50364;BME280;36272;59.400;17.982;2023-02-28T02:07:35;102420.97;;;2.66;81.61
50364;BME280;36272;59.400;17.982;2023-02-28T02:13:04;102413.84;;;2.67;81.44
50364;BME280;36272;59.400;17.982;2023-02-28T02:18:30;102411.22;;;2.67;81.40
50364;BME280;36272;59.400;17.982;2023-02-28T02:29:40;102405.25;;;2.65;81.94
50364;BME280;36272;59.400;17.982;2023-02-28T02:46:14;102420.56;;;2.71;80.88
50364;BME280;36272;59.400;17.982;2023-02-28T02:51:20;102409.84;;;2.30;81.10
50364;BME280;36272;59.400;17.982;2023-02-28T02:56:31;102419.22;;;2.23;81.25
50364;BME280;36272;59.400;17.982;2023-02-28T03:01:43;102430.59;;;2.23;81.26
50364;BME280;36272;59.400;17.982;2023-02-28T03:06:50;102419.25;;;2.12;81.15
50364;BME280;36272;59.400;17.982;2023-02-28T03:12:09;102412.53;;;2.07;81.39
50364;BME280;36272;59.400;17.982;2023-02-28T03:22:46;102410.03;;;2.06;82.01
50364;BME280;36272;59.400;17.982;2023-02-28T03:40:43;102423.34;;;2.04;81.19
50364;BME280;36272;59.400;17.982;2023-02-28T03:45:52;102425.50;;;1.99;81.03
50364;BME280;36272;59.400;17.982;2023-02-28T03:51:00;102421.47;;;1.95;81.36
50364;BME280;36272;59.400;17.982;2023-02-28T03:56:11;102406.13;;;1.89;81.11
50364;BME280;36272;59.400;17.982;2023-02-28T04:01:35;102403.47;;;1.89;81.57
50364;BME280;36272;59.400;17.982;2023-02-28T04:06:39;102400.84;;;1.89;81.38
50364;BME280;36272;59.400;17.982;2023-02-28T04:11:50;102400.59;;;1.92;81.58
50364;BME280;36272;59.400;17.982;2023-02-28T04:16:57;102402.25;;;1.93;81.38
50364;BME280;36272;59.400;17.982;2023-02-28T04:22:09;102398.41;;;1.97;81.31
50364;BME280;36272;59.400;17.982;2023-02-28T04:27:16;102396.47;;;1.99;81.06
50364;BME280;36272;59.400;17.982;2023-02-28T04:32:18;102401.63;;;2.01;80.94
50364;BME280;36272;59.400;17.982;2023-02-28T04:37:20;102388.53;;;1.99;81.02
50364;BME280;36272;59.400;17.982;2023-02-28T04:42:29;102398.16;;;2.00;80.91
50364;BME280;36272;59.400;17.982;2023-02-28T04:47:40;102390.94;;;2.02;81.06
50364;BME280;36272;59.400;17.982;2023-02-28T04:52:44;102404.59;;;2.07;80.84
50364;BME280;36272;59.400;17.982;2023-02-28T04:57:49;102409.31;;;2.04;80.69
50364;BME280;36272;59.400;17.982;2023-02-28T05:02:50;102418.06;;;2.04;80.65
50364;BME280;36272;59.400;17.982;2023-02-28T05:07:52;102410.38;;;2.01;80.74
50364;BME280;36272;59.400;17.982;2023-02-28T05:12:54;102408.47;;;2.03;80.72
50364;BME280;36272;59.400;17.982;2023-02-28T05:18:00;102407.50;;;2.04;80.53
50364;BME280;36272;59.400;17.982;2023-02-28T05:23:01;102422.25;;;2.07;80.68
50364;BME280;36272;59.400;17.982;2023-02-28T05:28:06;102422.13;;;2.08;80.43
50364;BME280;36272;59.400;17.982;2023-02-28T05:33:13;102417.69;;;2.09;80.36
50364;BME280;36272;59.400;17.982;2023-02-28T05:38:15;102424.66;;;2.10;80.20
50364;BME280;36272;59.400;17.982;2023-02-28T05:43:27;102428.84;;;2.13;80.32
50364;BME280;36272;59.400;17.982;2023-02-28T05:48:28;102433.88;;;2.16;80.04
50364;BME280;36272;59.400;17.982;2023-02-28T05:53:31;102426.34;;;2.11;80.13
50364;BME280;36272;59.400;17.982;2023-02-28T05:58:36;102425.47;;;2.11;79.90
50364;BME280;36272;59.400;17.982;2023-02-28T06:03:47;102434.38;;;2.10;79.87
50364;BME280;36272;59.400;17.982;2023-02-28T06:08:49;102438.69;;;2.11;79.90
50364;BME280;36272;59.400;17.982;2023-02-28T06:13:56;102434.72;;;2.16;80.01
50364;BME280;36272;59.400;17.982;2023-02-28T06:18:59;102442.00;;;2.24;79.91
50364;BME280;36272;59.400;17.982;2023-02-28T06:24:02;102443.19;;;2.31;80.07
50364;BME280;36272;59.400;17.982;2023-02-28T06:29:04;102455.53;;;2.42;79.77
50364;BME280;36272;59.400;17.982;2023-02-28T06:34:05;102450.56;;;2.49;79.36
50364;BME280;36272;59.400;17.982;2023-02-28T06:39:10;102451.03;;;2.54;79.40
50364;BME280;36272;59.400;17.982;2023-02-28T06:44:22;102453.16;;;2.60;79.27
50364;BME280;36272;59.400;17.982;2023-02-28T06:49:23;102461.41;;;2.67;79.29
50364;BME280;36272;59.400;17.982;2023-02-28T06:54:26;102464.97;;;2.77;79.05
50364;BME280;36272;59.400;17.982;2023-02-28T06:59:37;102445.56;;;2.88;78.89
50364;BME280;36272;59.400;17.982;2023-02-28T07:04:39;102450.81;;;3.00;78.61
50364;BME280;36272;59.400;17.982;2023-02-28T07:09:42;102445.84;;;3.06;78.12
50364;BME280;36272;59.400;17.982;2023-02-28T07:14:46;102461.78;;;3.16;77.89
50364;BME280;36272;59.400;17.982;2023-02-28T07:19:48;102455.00;;;3.23;78.08
50364;BME280;36272;59.400;17.982;2023-02-28T07:24:50;102461.88;;;3.36;77.48
50364;BME280;36272;59.400;17.982;2023-02-28T07:29:55;102452.88;;;3.48;77.66
50364;BME280;36272;59.400;17.982;2023-02-28T07:35:23;102450.53;;;3.55;77.65
50364;BME280;36272;59.400;17.982;2023-02-28T07:40:30;102438.84;;;3.57;77.36
50364;BME280;36272;59.400;17.982;2023-02-28T07:45:32;102457.66;;;3.54;77.06
50364;BME280;36272;59.400;17.982;2023-02-28T07:50:35;102459.31;;;3.55;77.09
50364;BME280;36272;59.400;17.982;2023-02-28T07:55:37;102451.13;;;3.59;76.81
50364;BME280;36272;59.400;17.982;2023-02-28T08:00:48;102441.53;;;3.67;76.69
50364;BME280;36272;59.400;17.982;2023-02-28T08:05:50;102442.53;;;3.76;76.34
50364;BME280;36272;59.400;17.982;2023-02-28T08:10:53;102436.69;;;3.82;76.48
50364;BME280;36272;59.400;17.982;2023-02-28T08:15:56;102436.31;;;3.87;76.21
50364;BME280;36272;59.400;17.982;2023-02-28T08:20:57;102432.97;;;3.95;76.28
50364;BME280;36272;59.400;17.982;2023-02-28T08:26:00;102446.38;;;4.03;75.87
50364;BME280;36272;59.400;17.982;2023-02-28T08:31:11;102431.06;;;4.16;75.40
50364;BME280;36272;59.400;17.982;2023-02-28T08:42:27;102431.06;;;4.36;74.84
50364;BME280;36272;59.400;17.982;2023-02-28T08:47:37;102425.78;;;4.36;74.68
50364;BME280;36272;59.400;17.982;2023-02-28T08:52:53;102417.69;;;4.38;74.68
50364;BME280;36272;59.400;17.982;2023-02-28T08:58:13;102419.75;;;4.44;74.35
50364;BME280;36272;59.400;17.982;2023-02-28T09:10:26;102404.69;;;4.74;74.23
50364;BME280;36272;59.400;17.982;2023-02-28T09:15:28;102410.13;;;4.82;73.95
50364;BME280;36272;59.400;17.982;2023-02-28T09:40:31;102371.41;;;5.37;73.09
50364;BME280;36272;59.400;17.982;2023-02-28T10:37:19;102393.44;;;6.66;69.97
50364;BME280;36272;59.400;17.982;2023-02-28T11:10:57;102396.31;;;7.77;67.81
50364;BME280;36272;59.400;17.982;2023-02-28T11:22:01;102388.53;;;8.00;67.34
50364;BME280;36272;59.400;17.982;2023-02-28T11:32:28;102378.59;;;8.76;67.39
50364;BME280;36272;59.400;17.982;2023-02-28T11:37:33;102376.09;;;10.94;63.32
50364;BME280;36272;59.400;17.982;2023-02-28T11:43:01;102368.50;;;13.08;59.03
50364;BME280;36272;59.400;17.982;2023-02-28T13:15:08;102323.00;;;16.76;50.59
50364;BME280;36272;59.400;17.982;2023-02-28T15:53:12;102289.03;;;8.82;61.58
50364;BME280;36272;59.400;17.982;2023-02-28T15:58:22;102267.56;;;8.67;61.84
50364;BME280;36272;59.400;17.982;2023-02-28T16:03:27;102264.94;;;8.51;61.99
50364;BME280;36272;59.400;17.982;2023-02-28T16:08:53;102259.28;;;8.37;62.33
50364;BME280;36272;59.400;17.982;2023-02-28T16:13:55;102271.09;;;8.43;62.40
50364;BME280;36272;59.400;17.982;2023-02-28T16:19:26;102255.16;;;8.10;62.79
50364;BME280;36272;59.400;17.982;2023-02-28T16:25:18;102274.16;;;8.07;63.18
50364;BME280;36272;59.400;17.982;2023-02-28T16:31:16;102279.81;;;7.95;63.41
50364;BME280;36272;59.400;17.982;2023-02-28T16:49:12;102288.13;;;7.67;63.74
50364;BME280;36272;59.400;17.982;2023-02-28T16:54:23;102289.25;;;7.65;63.95
50364;BME280;36272;59.400;17.982;2023-02-28T17:10:01;102303.06;;;7.52;64.27
50364;BME280;36272;59.400;17.982;2023-02-28T17:20:42;102306.69;;;7.42;64.32
50364;BME280;36272;59.400;17.982;2023-02-28T17:25:49;102300.00;;;7.38;64.16
50364;BME280;36272;59.400;17.982;2023-02-28T17:31:44;102296.69;;;7.36;64.50
50364;BME280;36272;59.400;17.982;2023-02-28T17:36:57;102314.47;;;7.27;64.23
50364;BME280;36272;59.400;17.982;2023-02-28T17:42:01;102290.34;;;7.21;64.52
50364;BME280;36272;59.400;17.982;2023-02-28T17:47:11;102292.78;;;7.14;64.56
50364;BME280;36272;59.400;17.982;2023-02-28T17:58:53;102279.63;;;7.04;64.80
50364;BME280;36272;59.400;17.982;2023-02-28T18:09:42;102286.56;;;6.97;65.13
50364;BME280;36272;59.400;17.982;2023-02-28T18:26:56;102288.69;;;6.85;65.53
50364;BME280;36272;59.400;17.982;2023-02-28T19:20:08;102302.56;;;6.44;66.15
50364;BME280;36272;59.400;17.982;2023-02-28T19:25:11;102326.78;;;6.41;66.19
50364;BME280;36272;59.400;17.982;2023-02-28T19:30:13;102331.06;;;6.34;66.46
50364;BME280;36272;59.400;17.982;2023-02-28T19:35:15;102331.59;;;6.37;66.52
50364;BME280;36272;59.400;17.982;2023-02-28T19:40:17;102339.09;;;6.42;66.64
50364;BME280;36272;59.400;17.982;2023-02-28T19:45:18;102345.78;;;6.46;66.75
50364;BME280;36272;59.400;17.982;2023-02-28T19:50:21;102329.44;;;6.41;66.66
50364;BME280;36272;59.400;17.982;2023-02-28T19:55:23;102341.59;;;6.44;66.70
50364;BME280;36272;59.400;17.982;2023-02-28T20:00:27;102337.41;;;6.41;66.85
50364;BME280;36272;59.400;17.982;2023-02-28T20:10:40;102334.03;;;6.31;66.77
